Time;durP1;ratioP1;P1;durP2;ratioP2;P2;SDS_P1;SDS_P2;PMS_P1;PMS_P2;Temp;Humidity;BMP_temperature;BMP_pressure;BME280_temperature;BME280_humidity;BME280_pressure;Samples;Min_cycle;Max_cycle;Signal;HPM_P1;HPM_P2
2024/03/25 00:01:06;;;;;;;4.88;2.28;;;5.30;99.90;;;;;;5008854;28;20042;-79
2024/03/25 00:03:35;;;;;;;4.63;1.80;;;5.30;99.90;;;;;;5015472;28;20100;-79
2024/03/25 00:06:01;;;;;;;4.57;2.17;;;5.20;99.90;;;;;;5012000;28;20042;-78
2024/03/25 00:08:29;;;;;;;6.13;2.50;;;5.30;99.90;;;;;;5012500;28;20046;-79
2024/03/25 00:10:56;;;;;;;7.10;2.92;;;5.20;99.90;;;;;;5000417;28;20534;-79
2024/03/25 00:13:24;;;;;;;7.22;3.15;;;5.20;99.90;;;;;;5020306;28;20041;-79
2024/03/25 00:15:50;;;;;;;4.78;1.90;;;4.80;99.90;;;;;;5012003;28;22457;-79
2024/03/25 00:18:18;;;;;;;5.28;2.03;;;5.10;99.90;;;;;;5015856;28;20132;-79
2024/03/25 00:20:46;;;;;;;6.03;1.88;;;4.20;99.90;;;;;;5004997;28;20056;-79
2024/03/25 00:23:13;;;;;;;5.43;1.83;;;5.10;99.90;;;;;;5021414;28;20508;-79
2024/03/25 00:25:42;;;;;;;3.97;2.08;;;5.20;99.90;;;;;;5032695;28;20432;-79
2024/03/25 00:28:10;;;;;;;4.57;2.15;;;5.10;99.90;;;;;;4992616;28;20045;-79
2024/03/25 00:30:37;;;;;;;4.05;2.00;;;5.10;99.90;;;;;;4994536;28;20129;-79
2024/03/25 00:33:06;;;;;;;5.18;1.92;;;5.10;99.90;;;;;;4995635;28;20029;-79
2024/03/25 00:35:32;;;;;;;3.70;1.70;;;5.10;99.90;;;;;;5010564;28;20045;-79
2024/03/25 00:38:01;;;;;;;3.75;1.13;;;5.10;99.90;;;;;;4995783;28;20050;-80
2024/03/25 00:40:28;;;;;;;3.70;1.27;;;5.10;99.90;;;;;;4993015;28;20045;-79
2024/03/25 00:42:55;;;;;;;5.82;1.92;;;4.00;99.90;;;;;;4991792;28;20101;-77
2024/03/25 00:45:24;;;;;;;5.32;1.40;;;5.10;99.90;;;;;;5022751;28;20048;-79
2024/03/25 00:47:52;;;;;;;3.92;1.58;;;5.00;99.90;;;;;;4993347;28;20411;-79
2024/03/25 00:50:18;;;;;;;5.68;2.17;;;5.00;99.90;;;;;;4986674;28;20130;-80
2024/03/25 00:52:46;;;;;;;4.20;1.77;;;5.00;99.90;;;;;;5029833;28;20705;-79
2024/03/25 00:55:14;;;;;;;3.28;1.63;;;4.90;99.90;;;;;;5008880;28;20536;-80
2024/03/25 00:57:42;;;;;;;4.05;2.00;;;4.90;99.90;;;;;;5019705;28;20103;-80
2024/03/25 01:00:09;;;;;;;6.28;2.65;;;4.80;99.90;;;;;;5014933;28;20060;-79
2024/03/25 01:02:37;;;;;;;6.25;2.65;;;4.80;99.90;;;;;;5008898;28;20065;-80
2024/03/25 01:05:05;;;;;;;6.63;2.83;;;4.80;99.90;;;;;;4987540;28;20047;-79
2024/03/25 01:07:32;;;;;;;5.30;2.20;;;4.80;99.90;;;;;;4990591;28;20096;-80
2024/03/25 01:09:58;;;;;;;4.35;2.05;;;4.70;99.90;;;;;;5014667;28;20057;-80
2024/03/25 01:12:27;;;;;;;3.63;1.83;;;4.70;99.90;;;;;;5007159;28;20038;-79
2024/03/25 01:14:54;;;;;;;3.22;1.42;;;4.70;99.90;;;;;;4979591;28;20037;-80
2024/03/25 01:17:21;;;;;;;4.50;1.80;;;4.60;99.90;;;;;;4991737;28;20046;-79
2024/03/25 01:19:47;;;;;;;5.15;2.22;;;4.70;99.90;;;;;;5014295;28;20458;-79
2024/03/25 01:22:15;;;;;;;5.50;1.70;;;4.60;99.90;;;;;;5009951;28;20203;-79
2024/03/25 01:24:42;;;;;;;5.78;1.63;;;5.10;99.90;;;;;;4993313;28;20088;-80
2024/03/25 01:27:09;;;;;;;4.55;1.75;;;4.70;99.90;;;;;;5002637;28;20046;-80
2024/03/25 01:29:37;;;;;;;6.88;2.10;;;4.50;99.90;;;;;;5016648;28;20049;-80
2024/03/25 01:32:06;;;;;;;4.60;2.17;;;4.60;99.90;;;;;;5014227;28;20041;-79
2024/03/25 01:34:32;;;;;;;5.07;2.08;;;4.50;99.90;;;;;;5032168;28;20096;-80
2024/03/25 01:37:00;;;;;;;9.10;3.67;;;4.50;99.90;;;;;;4996837;28;20053;-80
2024/03/25 01:39:26;;;;;;;8.75;3.75;;;4.50;99.90;;;;;;5010614;28;20050;-79
2024/03/25 01:41:54;;;;;;;11.43;4.45;;;4.40;99.90;;;;;;5016356;28;20042;-80
2024/03/25 01:44:20;;;;;;;5.53;2.83;;;4.60;99.90;;;;;;5016864;28;20085;-79
2024/03/25 01:46:49;;;;;;;8.50;3.92;;;4.40;99.90;;;;;;5015555;28;20435;-80
2024/03/25 01:49:16;;;;;;;7.50;3.92;;;4.40;99.90;;;;;;5033406;28;20044;-80
2024/03/25 01:51:44;;;;;;;7.68;3.70;;;4.40;99.90;;;;;;5021887;28;20068;-79
2024/03/25 01:54:14;;;;;;;8.30;4.30;;;4.50;99.90;;;;;;4980703;28;21502;-77
2024/03/25 01:56:42;;;;;;;9.65;3.83;;;4.40;99.90;;;;;;5018141;28;20488;-80
2024/03/25 01:59:08;;;;;;;9.65;3.95;;;4.30;99.90;;;;;;5007539;28;20485;-79
2024/03/25 02:01:36;;;;;;;6.05;2.88;;;3.60;99.90;;;;;;5001920;28;20045;-81
2024/03/25 02:04:05;;;;;;;5.53;2.03;;;4.40;99.90;;;;;;5016747;28;20079;-80
2024/03/25 02:06:33;;;;;;;6.32;2.30;;;4.30;99.90;;;;;;5024564;28;20033;-80
2024/03/25 02:09:01;;;;;;;4.63;2.40;;;4.30;99.90;;;;;;5014160;28;20461;-75
2024/03/25 02:11:29;;;;;;;5.40;1.95;;;4.40;99.90;;;;;;5009302;28;20063;-75
2024/03/25 02:13:55;;;;;;;4.88;1.65;;;4.30;99.90;;;;;;4992709;28;20401;-75
2024/03/25 02:16:22;;;;;;;5.07;2.20;;;4.20;99.90;;;;;;5006462;28;20498;-75
2024/03/25 02:18:50;;;;;;;3.38;1.67;;;4.20;99.90;;;;;;4982510;28;20048;-75
2024/03/25 02:21:19;;;;;;;4.60;2.03;;;4.30;99.90;;;;;;4983966;28;20046;-75
2024/03/25 02:23:49;;;;;;;7.47;2.42;;;4.70;99.90;;;;;;5008565;28;20050;-75
2024/03/25 02:26:19;;;;;;;4.55;1.92;;;4.30;99.90;;;;;;4997499;28;20132;-75
2024/03/25 02:28:45;;;;;;;6.43;1.80;;;4.30;99.90;;;;;;5003419;28;20058;-75
2024/03/25 02:31:13;;;;;;;5.85;2.10;;;4.30;99.90;;;;;;5006973;28;20046;-75
2024/03/25 02:33:39;;;;;;;6.05;1.67;;;4.30;99.90;;;;;;5013913;28;20049;-75
2024/03/25 02:36:07;;;;;;;6.13;2.13;;;4.30;99.90;;;;;;5015025;28;20508;-76
2024/03/25 02:38:35;;;;;;;5.20;1.90;;;4.30;99.90;;;;;;5009887;28;20049;-77
2024/03/25 02:41:03;;;;;;;5.15;1.48;;;4.20;99.90;;;;;;4995558;28;20047;-75
2024/03/25 02:43:31;;;;;;;4.28;1.70;;;4.30;99.90;;;;;;5011973;28;20042;-75
2024/03/25 02:45:58;;;;;;;6.65;2.10;;;4.30;99.90;;;;;;5010584;28;20068;-75
2024/03/25 02:48:25;;;;;;;4.85;2.05;;;4.30;99.90;;;;;;5026080;28;20045;-76
2024/03/25 02:50:52;;;;;;;5.68;1.98;;;4.30;99.90;;;;;;5023709;28;20080;-75
2024/03/25 02:53:18;;;;;;;3.85;1.63;;;4.30;99.90;;;;;;4997063;28;20057;-75
2024/03/25 02:55:46;;;;;;;3.15;1.33;;;4.20;99.90;;;;;;4991988;28;20065;-75
2024/03/25 02:58:12;;;;;;;3.60;1.30;;;4.30;99.90;;;;;;4997726;28;20038;-75
2024/03/25 03:00:41;;;;;;;3.22;1.27;;;4.30;99.90;;;;;;4997108;28;20100;-75
2024/03/25 03:03:07;;;;;;;3.40;1.15;;;4.20;99.90;;;;;;5004395;28;20088;-75
2024/03/25 03:05:36;;;;;;;3.63;1.50;;;4.20;99.90;;;;;;5029226;28;20040;-76
2024/03/25 03:08:02;;;;;;;3.47;1.50;;;4.20;99.90;;;;;;5002286;28;20049;-75
2024/03/25 03:10:30;;;;;;;4.43;1.40;;;4.20;99.90;;;;;;5029454;28;20052;-76
2024/03/25 03:12:56;;;;;;;2.70;1.08;;;4.20;99.90;;;;;;5014424;28;20040;-75
2024/03/25 03:15:23;;;;;;;2.90;0.98;;;4.20;99.90;;;;;;5023701;28;20083;-75
2024/03/25 03:17:51;;;;;;;3.38;1.40;;;4.20;99.90;;;;;;5005487;28;20187;-75
2024/03/25 03:20:19;;;;;;;2.55;0.90;;;4.10;99.90;;;;;;5009984;28;20018;-79
2024/03/25 03:22:48;;;;;;;3.65;1.15;;;4.20;99.90;;;;;;5049728;28;20032;-79
2024/03/25 03:25:17;;;;;;;1.95;0.88;;;4.20;99.90;;;;;;5039545;28;20034;-78
2024/03/25 03:27:43;;;;;;;3.25;0.93;;;4.30;99.90;;;;;;5037213;28;20038;-76
2024/03/25 03:30:12;;;;;;;3.78;1.10;;;3.90;99.90;;;;;;5023530;28;20054;-78
2024/03/25 03:32:39;;;;;;;3.83;1.15;;;4.40;99.90;;;;;;4994767;28;20046;-82
2024/03/25 03:35:09;;;;;;;4.20;1.50;;;4.40;99.90;;;;;;4999289;28;20044;-81
2024/03/25 03:37:37;;;;;;;1.73;0.73;;;4.00;99.90;;;;;;5000323;28;20033;-76
2024/03/25 03:40:11;;;;;;;3.78;0.75;;;4.40;99.90;;;;;;4995896;28;20054;-84
2024/03/25 03:42:43;;;;;;;2.95;0.82;;;3.80;99.90;;;;;;5019536;28;20042;-81
2024/03/25 03:45:14;;;;;;;2.40;1.00;;;4.40;99.90;;;;;;5032213;28;20041;-78
2024/03/25 03:47:43;;;;;;;1.80;0.70;;;4.20;99.90;;;;;;5006962;28;20032;-79
2024/03/25 03:50:20;;;;;;;3.60;0.98;;;4.20;99.90;;;;;;5013353;28;20049;-76
2024/03/25 03:52:46;;;;;;;1.95;0.63;;;4.10;99.90;;;;;;4993715;28;20030;-81
2024/03/25 04:07:10;;;;;;;3.10;0.98;;;4.10;99.90;;;;;;5853875;22;19920;-80
2024/03/25 04:09:38;;;;;;;2.67;0.88;;;4.30;99.90;;;;;;5033540;28;20040;-78
2024/03/25 04:12:10;;;;;;;6.80;1.67;;;4.70;99.90;;;;;;5044443;28;21152;-78
2024/03/25 04:20:38;;;;;;;3.60;1.08;;;4.10;99.90;;;;;;5204022;23;20050;-79
2024/03/25 04:26:10;;;;;;;4.60;1.30;;;4.30;99.90;;;;;;5375259;23;20047;-78
2024/03/25 04:28:37;;;;;;;3.58;1.00;;;3.90;99.90;;;;;;5030240;23;20957;-80
2024/03/25 04:31:05;;;;;;;4.30;1.20;;;4.70;99.90;;;;;;4954023;28;20027;-81
2024/03/25 04:33:34;;;;;;;3.00;1.02;;;4.30;99.90;;;;;;5124198;23;20069;-76
2024/03/25 04:36:02;;;;;;;4.32;1.25;;;4.10;99.90;;;;;;4959055;28;20031;-80
